Time;durP1;ratioP1;P1;durP2;ratioP2;P2;SDS_P1;SDS_P2;PMS_P1;PMS_P2;Temp;Humidity;BMP_temperature;BMP_pressure;BME280_temperature;BME280_humidity;BME280_pressure;Samples;Min_cycle;Max_cycle;Signal;HPM_P1;HPM_P2
2023/03/21 00:01:54;;;;;;;3.20;2.63;;;;;;;11.50;63.67;95815.22;6127579;23;20179;-85
2023/03/21 00:04:21;;;;;;;2.40;2.20;;;;;;;11.49;63.59;95823.13;6129125;23;20187;-86
2023/03/21 00:06:47;;;;;;;3.47;2.43;;;;;;;11.46;63.55;95811.38;6129220;23;20195;-85
2023/03/21 00:09:14;;;;;;;2.77;2.50;;;;;;;11.46;63.49;95798.47;6129706;23;20488;-85
2023/03/21 00:11:40;;;;;;;2.53;2.33;;;;;;;11.48;63.47;95799.09;6129604;23;20175;-86
2023/03/21 00:14:07;;;;;;;3.80;2.60;;;;;;;11.48;63.54;95804.25;6129738;23;20184;-84
2023/03/21 00:16:36;;;;;;;2.47;2.30;;;;;;;11.53;63.92;95803.75;6129510;23;20199;-85
2023/03/21 00:19:05;;;;;;;2.63;2.43;;;;;;;11.55;63.66;95802.56;6128716;23;20206;-86
2023/03/21 00:21:32;;;;;;;3.90;2.70;;;;;;;11.58;63.59;95798.84;6128500;23;20180;-85
2023/03/21 00:24:00;;;;;;;2.63;2.43;;;;;;;11.48;64.55;95795.72;6128877;23;20228;-83
2023/03/21 00:26:26;;;;;;;4.10;2.37;;;;;;;11.48;64.27;95793.16;6127898;23;20203;-85
2023/03/21 00:28:53;;;;;;;2.63;2.33;;;;;;;11.53;64.18;95796.00;6128997;23;20183;-85
2023/03/21 00:31:19;;;;;;;2.80;2.53;;;;;;;11.52;64.16;95792.63;6128795;23;20190;-86
2023/03/21 00:33:47;;;;;;;2.43;2.23;;;;;;;11.55;64.97;95788.88;6128257;23;20186;-84
2023/03/21 00:36:14;;;;;;;2.53;2.33;;;;;;;11.55;64.71;95784.50;6128347;23;20206;-85
2023/03/21 00:38:41;;;;;;;2.70;2.50;;;;;;;11.52;65.04;95787.47;6126868;23;20179;-85
2023/03/21 00:41:10;;;;;;;2.50;2.30;;;;;;;11.54;64.85;95782.13;6127935;23;20172;-85
2023/03/21 00:43:37;;;;;;;2.43;2.23;;;;;;;11.55;64.67;95787.09;6128378;23;20593;-84
2023/03/21 00:46:04;;;;;;;3.03;2.70;;;;;;;11.59;65.15;95790.91;6129522;23;20278;-84
2023/03/21 00:48:30;;;;;;;3.40;2.40;;;;;;;11.61;65.51;95783.00;6128626;23;20183;-84
2023/03/21 00:50:59;;;;;;;3.03;2.50;;;;;;;11.59;65.63;95780.59;6129340;23;20179;-86
2023/03/21 00:53:26;;;;;;;2.20;2.00;;;;;;;11.58;65.50;95783.38;6129040;23;20183;-87
2023/03/21 00:55:52;;;;;;;2.70;2.30;;;;;;;11.63;65.58;95784.44;6128790;23;20203;-86
2023/03/21 00:58:19;;;;;;;2.60;2.40;;;;;;;11.61;65.12;95777.84;6128213;23;20187;-86
2023/03/21 01:00:46;;;;;;;2.80;2.40;;;;;;;11.56;65.33;95775.81;6128646;23;20199;-85
2023/03/21 01:03:14;;;;;;;2.50;2.30;;;;;;;11.58;64.88;95768.69;6127555;23;20179;-85
2023/03/21 01:08:29;;;;;;;2.83;2.30;;;;;;;11.59;64.99;95766.91;6128065;23;20161;-85
2023/03/21 01:10:56;;;;;;;2.97;2.30;;;;;;;11.55;64.91;95768.25;6127949;23;20178;-84
2023/03/21 01:13:24;;;;;;;2.50;2.30;;;;;;;11.52;65.06;95761.69;6128003;23;20178;-86
2023/03/21 01:15:53;;;;;;;2.60;2.40;;;;;;;11.50;65.00;95752.53;6128260;23;20598;-84
2023/03/21 01:18:23;;;;;;;2.60;2.40;;;;;;;11.51;65.10;95760.09;6128490;23;20186;-85
2023/03/21 01:20:50;;;;;;;2.57;2.33;;;;;;;11.53;65.28;95758.13;6128895;23;20184;-84
2023/03/21 01:23:17;;;;;;;3.57;2.40;;;;;;;11.52;65.04;95759.09;6127708;23;20387;-85
2023/03/21 01:25:47;;;;;;;2.53;2.33;;;;;;;11.54;65.42;95759.72;6129150;23;20356;-85
2023/03/21 01:28:14;;;;;;;3.67;2.60;;;;;;;11.55;65.19;95760.50;6128681;23;20183;-86
2023/03/21 01:30:45;;;;;;;3.37;2.50;;;;;;;11.54;65.59;95759.72;6127828;23;20259;-86
2023/03/21 01:33:11;;;;;;;3.10;2.80;;;;;;;11.52;65.68;95753.16;6128302;23;20218;-85
2023/03/21 01:35:38;;;;;;;2.83;2.63;;;;;;;11.47;65.87;95753.69;6128061;23;20179;-84
2023/03/21 01:38:04;;;;;;;4.30;3.17;;;;;;;11.50;65.57;95749.94;6125892;23;20643;-86
2023/03/21 01:40:31;;;;;;;4.57;2.93;;;;;;;11.48;65.47;95744.16;6128512;23;20634;-85
2023/03/21 01:42:59;;;;;;;4.37;2.83;;;;;;;11.48;65.76;95741.59;6127671;23;20712;-85
2023/03/21 01:46:11;;;;;;;3.47;3.10;;;;;;;11.50;66.17;95739.63;6127598;23;20184;-85
2023/03/21 01:48:41;;;;;;;3.37;3.00;;;;;;;11.51;65.73;95739.44;6091512;23;20175;-85
2023/03/21 01:51:08;;;;;;;3.10;2.80;;;;;;;11.50;65.96;95737.84;6127938;23;20179;-85
2023/03/21 01:53:37;;;;;;;2.90;2.70;;;;;;;11.53;66.28;95734.13;6128479;23;20229;-84
2023/03/21 01:56:11;;;;;;;4.40;3.00;;;;;;;11.54;66.15;95730.56;6127763;23;20203;-86
2023/03/21 01:58:42;;;;;;;3.27;2.60;;;;;;;11.53;66.09;95734.13;6128705;23;20164;-84
2023/03/21 02:01:09;;;;;;;2.80;2.60;;;;;;;11.48;66.55;95726.13;6128441;23;20206;-86
2023/03/21 02:03:37;;;;;;;3.40;2.73;;;;;;;11.46;66.52;95728.88;6128420;23;20254;-86
2023/03/21 02:06:09;;;;;;;3.33;3.10;;;;;;;11.41;66.95;95726.81;6129048;23;20210;-84
2023/03/21 02:08:36;;;;;;;4.60;3.10;;;;;;;11.41;66.79;95726.81;6129639;23;20166;-83
2023/03/21 02:11:02;;;;;;;3.07;2.83;;;;;;;11.40;67.03;95727.78;6129455;23;20203;-84
2023/03/21 02:13:29;;;;;;;3.10;2.80;;;;;;;11.42;66.91;95733.56;6129362;23;20179;-85
2023/03/21 02:16:01;;;;;;;3.40;3.10;;;;;;;11.38;67.15;95726.38;6129230;23;20820;-87
2023/03/21 02:18:38;;;;;;;6.23;2.90;;;;;;;11.39;67.30;95727.97;6129729;23;20163;-85
2023/03/21 02:21:19;;;;;;;3.20;2.90;;;;;;;11.33;67.94;95729.50;6128830;23;20568;-85
2023/03/21 02:24:12;;;;;;;3.10;2.80;;;;;;;11.34;67.68;95731.09;6129529;23;20593;-83
2023/03/21 02:27:02;;;;;;;3.60;3.07;;;;;;;11.35;67.68;95729.31;6130175;23;20199;-85
2023/03/21 02:29:43;;;;;;;5.10;3.17;;;;;;;11.33;67.83;95726.13;6129956;23;20160;-85
2023/03/21 02:32:23;;;;;;;3.13;2.87;;;;;;;11.34;67.47;95725.94;6130352;23;20752;-85
2023/03/21 02:35:03;;;;;;;3.30;3.00;;;;;;;11.33;68.09;95726.91;6129939;23;20191;-86
2023/03/21 02:37:33;;;;;;;3.60;3.30;;;;;;;11.35;67.29;95729.31;6128873;23;20199;-86
2023/03/21 02:40:09;;;;;;;3.67;3.00;;;;;;;11.37;67.50;95732.50;6129789;23;20238;-86
2023/03/21 02:42:44;;;;;;;3.40;3.10;;;;;;;11.37;67.52;95727.34;6130623;23;20179;-85
2023/03/21 02:45:17;;;;;;;3.40;3.10;;;;;;;11.36;67.81;95728.31;6129202;23;20155;-85
2023/03/21 02:47:48;;;;;;;3.53;3.20;;;;;;;11.35;67.60;95734.47;6129216;23;20207;-85
2023/03/21 02:50:18;;;;;;;5.70;3.50;;;;;;;11.34;67.89;95730.31;6130158;23;20281;-83
2023/03/21 02:52:48;;;;;;;3.83;3.20;;;;;;;11.35;67.74;95719.00;6129814;23;20374;-85
2023/03/21 02:55:19;;;;;;;3.60;3.30;;;;;;;11.36;67.60;95723.16;6129669;23;20190;-84
2023/03/21 02:57:49;;;;;;;3.30;3.00;;;;;;;11.37;67.57;95728.13;6129388;23;20227;-84
2023/03/21 03:00:20;;;;;;;3.77;3.47;;;;;;;11.30;68.14;95721.31;6129490;23;20199;-84
2023/03/21 03:02:48;;;;;;;4.50;3.20;;;;;;;11.32;68.08;95722.75;6128902;23;20218;-84
2023/03/21 03:05:17;;;;;;;3.80;3.20;;;;;;;11.35;67.62;95724.16;6130370;23;20195;-87
2023/03/21 03:07:59;;;;;;;3.40;3.00;;;;;;;11.33;67.96;95724.34;6131457;23;20262;-86
2023/03/21 03:10:41;;;;;;;3.77;3.47;;;;;;;11.33;68.13;95726.13;6131341;23;20777;-86
2023/03/21 03:13:18;;;;;;;3.50;3.20;;;;;;;11.32;68.32;95721.94;6130812;23;20417;-87
2023/03/21 03:15:53;;;;;;;3.60;3.30;;;;;;;11.34;68.07;95725.94;6131414;23;20168;-87
2023/03/21 03:18:23;;;;;;;3.90;3.60;;;;;;;11.36;68.12;95723.97;6130726;23;20167;-86
2023/03/21 03:21:00;;;;;;;3.63;3.33;;;;;;;11.38;68.34;95722.00;6130229;23;20660;-86
2023/03/21 03:23:35;;;;;;;3.87;3.57;;;;;;;11.37;68.15;95719.59;6129847;23;20186;-85
2023/03/21 03:26:05;;;;;;;4.90;3.50;;;;;;;11.35;68.50;95708.69;6129785;23;20207;-86
2023/03/21 03:28:37;;;;;;;3.87;3.20;;;;;;;11.37;68.06;95715.25;6129118;23;20212;-86
2023/03/21 03:31:07;;;;;;;3.43;3.13;;;;;;;11.41;68.07;95710.53;6130171;23;20226;-87
2023/03/21 03:33:38;;;;;;;3.53;3.13;;;;;;;11.42;68.23;95707.78;6130458;23;20183;-86
2023/03/21 03:36:06;;;;;;;5.47;3.80;;;;;;;11.43;68.05;95711.97;6127870;23;20195;-84
2023/03/21 03:38:37;;;;;;;3.63;3.33;;;;;;;11.34;69.11;95699.38;6130048;23;20179;-86
2023/03/21 03:41:10;;;;;;;4.00;3.50;;;;;;;11.30;68.93;95706.66;6130834;23;20179;-86
2023/03/21 03:43:41;;;;;;;3.87;3.57;;;;;;;11.33;68.91;95711.47;6130644;23;20171;-86
2023/03/21 03:46:14;;;;;;;4.30;3.90;;;;;;;11.37;68.75;95704.94;6130752;23;20262;-87
2023/03/21 03:48:45;;;;;;;4.00;3.60;;;;;;;11.38;68.59;95711.69;6130416;23;20166;-87
2023/03/21 03:51:16;;;;;;;3.73;3.43;;;;;;;11.38;68.40;95709.13;6130784;23;20680;-85
2023/03/21 03:53:51;;;;;;;4.03;3.63;;;;;;;11.39;68.40;95707.34;6130332;23;20168;-83
2023/03/21 03:56:19;;;;;;;3.87;3.57;;;;;;;11.36;68.68;95715.44;6130126;23;20262;-84
2023/03/21 03:58:46;;;;;;;4.00;3.50;;;;;;;11.34;68.56;95717.41;6129787;23;20179;-84
2023/03/21 04:01:13;;;;;;;4.13;3.57;;;;;;;11.35;68.96;95719.78;6127551;23;20203;-83
2023/03/21 04:03:42;;;;;;;3.87;3.57;;;;;;;11.31;68.77;95712.59;6128692;23;20274;-85
2023/03/21 04:06:09;;;;;;;3.10;2.90;;;;;;;11.28;68.84;95712.97;6128207;23;20195;-84
2023/03/21 04:08:37;;;;;;;4.10;3.50;;;;;;;11.24;69.29;95712.50;6127930;23;20175;-86
2023/03/21 04:11:05;;;;;;;3.77;3.23;;;;;;;11.25;69.21;95703.78;6128247;23;20339;-86
2023/03/21 04:13:33;;;;;;;3.77;3.30;;;;;;;11.28;68.98;95705.22;6129949;23;20179;-86
2023/03/21 04:15:59;;;;;;;3.80;3.40;;;;;;;11.29;68.85;95701.66;6129662;23;20200;-86
2023/03/21 04:18:26;;;;;;;3.77;3.40;;;;;;;11.29;68.62;95704.25;6131180;23;20179;-87
2023/03/21 04:20:53;;;;;;;3.60;3.30;;;;;;;11.32;68.71;95701.31;6130419;23;20204;-87
2023/03/21 04:23:19;;;;;;;3.60;3.30;;;;;;;11.33;68.70;95705.50;6131297;23;20187;-86
2023/03/21 04:25:46;;;;;;;4.00;3.63;;;;;;;11.34;68.58;95712.25;6131097;23;20188;-87
2023/03/21 04:28:14;;;;;;;3.50;3.20;;;;;;;11.38;68.35;95705.75;6129539;23;20184;-86
2023/03/21 04:30:40;;;;;;;5.00;3.93;;;;;;;11.34;68.51;95710.47;6130409;23;20172;-87
2023/03/21 04:33:07;;;;;;;3.63;3.33;;;;;;;11.34;68.62;95705.31;6129123;23;20684;-86
2023/03/21 04:35:35;;;;;;;4.70;3.60;;;;;;;11.33;68.62;95703.72;6129024;23;20176;-87
2023/03/21 04:38:01;;;;;;;6.97;3.60;;;;;;;11.34;68.74;95696.78;6129208;23;20180;-88
2023/03/21 04:40:28;;;;;;;3.77;3.47;;;;;;;11.32;68.72;95689.22;6130702;23;20203;-88
2023/03/21 04:42:54;;;;;;;3.53;3.23;;;;;;;11.30;69.10;95692.97;6130903;23;20179;-86
2023/03/21 04:45:22;;;;;;;7.20;3.70;;;;;;;11.29;68.72;95694.75;6131371;23;20203;-86
2023/03/21 04:47:49;;;;;;;3.50;3.20;;;;;;;11.28;68.68;95692.34;6131304;23;20199;-88
2023/03/21 04:50:15;;;;;;;3.43;3.13;;;;;;;11.24;68.58;95697.03;6131314;23;20175;-87
2023/03/21 04:52:42;;;;;;;3.60;3.30;;;;;;;11.21;68.31;95697.38;6132176;23;20179;-87
2023/03/21 04:55:08;;;;;;;3.37;3.07;;;;;;;11.23;68.33;95692.06;6131877;23;20203;-87
2023/03/21 04:57:35;;;;;;;8.37;3.20;;;;;;;11.33;76.10;95698.56;6128040;23;20575;-87
2023/03/21 05:00:04;;;;;;;4.73;3.10;;;;;;;11.40;69.10;95690.91;6128741;23;20211;-88
2023/03/21 05:02:31;;;;;;;3.43;3.20;;;;;;;11.43;68.42;95691.34;6128591;23;20205;-87
2023/03/21 05:04:58;;;;;;;4.80;3.70;;;;;;;11.41;68.25;95697.66;6129171;23;20186;-85
2023/03/21 05:07:25;;;;;;;3.70;3.40;;;;;;;11.41;68.71;95700.22;6127540;23;20195;-88
2023/03/21 05:09:51;;;;;;;11.70;3.37;;;;;;;11.40;68.55;95696.06;6128823;23;20190;-85
2023/03/21 05:12:18;;;;;;;3.77;3.33;;;;;;;11.40;68.13;95699.44;6131163;23;20532;-84
2023/03/21 05:14:44;;;;;;;3.47;3.17;;;;;;;11.35;67.71;95694.00;6130782;23;20207;-85
2023/03/21 05:17:14;;;;;;;6.17;3.50;;;;;;;11.30;67.91;95690.38;6130185;23;20206;-86
2023/03/21 05:19:41;;;;;;;3.60;3.13;;;;;;;11.28;68.38;95695.72;6130444;23;20203;-86
2023/03/21 05:22:10;;;;;;;6.37;3.23;;;;;;;11.24;68.41;95689.31;6129789;23;20230;-84
2023/03/21 05:24:38;;;;;;;5.10;3.00;;;;;;;11.24;68.40;95691.09;6131197;23;20187;-85
2023/03/21 05:27:05;;;;;;;4.80;3.50;;;;;;;11.23;68.14;95687.72;6129400;23;20202;-85
2023/03/21 05:29:33;;;;;;;3.23;2.93;;;;;;;11.23;68.20;95689.47;6129358;23;20180;-85
2023/03/21 05:32:01;;;;;;;4.70;3.40;;;;;;;11.22;68.57;95690.47;6131467;23;20499;-86
2023/03/21 05:34:28;;;;;;;3.90;3.40;;;;;;;11.20;68.17;95690.63;6131958;23;20515;-87
2023/03/21 05:36:56;;;;;;;3.63;3.20;;;;;;;11.20;68.00;95690.63;6128968;23;20199;-85
2023/03/21 05:39:22;;;;;;;4.53;3.17;;;;;;;11.18;67.98;95692.59;6128610;23;20211;-85
2023/03/21 05:41:49;;;;;;;3.30;3.00;;;;;;;11.19;67.97;95690.81;6130008;23;20199;-84
2023/03/21 05:44:15;;;;;;;4.67;3.17;;;;;;;11.17;68.30;95695.34;6132552;23;20175;-86
2023/03/21 05:46:42;;;;;;;3.93;3.13;;;;;;;11.20;67.95;95689.84;6134418;23;20702;-87
2023/03/21 05:49:10;;;;;;;5.00;3.53;;;;;;;11.24;68.17;95697.03;6132168;23;20176;-85
2023/03/21 05:51:36;;;;;;;3.60;3.30;;;;;;;11.23;68.17;95700.59;6132415;23;20202;-86
2023/03/21 05:54:05;;;;;;;4.43;3.20;;;;;;;11.23;67.94;95707.53;6134657;23;20180;-84
2023/03/21 05:56:31;;;;;;;3.23;2.93;;;;;;;11.21;68.03;95712.84;6133600;23;20718;-88
2023/03/21 05:58:58;;;;;;;4.00;3.50;;;;;;;11.20;68.28;95708.66;6130091;23;20179;-84
2023/03/21 06:01:24;;;;;;;3.63;3.27;;;;;;;11.20;68.59;95711.25;6130446;23;20199;-85
2023/03/21 06:03:52;;;;;;;3.90;3.17;;;;;;;11.16;69.35;95711.81;6131909;23;20180;-87
2023/03/21 06:06:18;;;;;;;5.83;3.50;;;;;;;11.21;68.79;95715.44;6133018;23;20199;-85
2023/03/21 06:08:45;;;;;;;4.73;3.30;;;;;;;11.18;69.60;95712.41;6134903;23;20172;-85
2023/03/21 06:11:23;;;;;;;3.50;3.10;;;;;;;11.23;69.23;95718.63;6131974;23;20567;-87
2023/03/21 06:13:49;;;;;;;3.27;2.97;;;;;;;11.22;69.25;95717.03;6131620;23;20167;-86
2023/03/21 06:16:15;;;;;;;3.47;3.17;;;;;;;11.21;69.00;95715.44;6131521;23;20206;-85
2023/03/21 06:18:42;;;;;;;3.17;2.97;;;;;;;11.30;68.42;95714.38;6130938;23;20706;-85
2023/03/21 06:21:08;;;;;;;6.77;4.07;;;;;;;11.25;72.37;95716.69;6130856;23;20322;-85
2023/03/21 06:23:35;;;;;;;5.40;3.90;;;;;;;11.24;73.27;95715.06;6134281;23;20183;-86
2023/03/21 06:26:03;;;;;;;4.70;3.67;;;;;;;11.30;70.40;95719.53;6133469;23;20207;-85
2023/03/21 06:28:31;;;;;;;7.60;3.80;;;;;;;11.37;69.78;95722.97;6139657;23;20190;-83
2023/03/21 06:30:58;;;;;;;8.03;6.13;;;;;;;11.41;69.01;95724.25;6134698;23;20175;-86
2023/03/21 06:33:25;;;;;;;24.73;19.90;;;;;;;11.41;68.77;95720.84;6134893;23;20187;-85
2023/03/21 06:35:52;;;;;;;16.13;10.17;;;;;;;11.44;68.87;95723.09;6134877;23;20840;-85
2023/03/21 06:38:19;;;;;;;7.10;6.23;;;;;;;11.44;68.39;95725.66;6134938;23;20179;-85
2023/03/21 06:40:46;;;;;;;4.83;3.80;;;;;;;11.50;67.77;95724.16;6133768;23;20203;-85
2023/03/21 06:43:12;;;;;;;4.50;3.10;;;;;;;11.56;67.85;95726.81;6135295;23;20179;-87
2023/03/21 06:45:40;;;;;;;3.50;3.20;;;;;;;11.56;67.64;95731.97;6133846;23;20550;-83
2023/03/21 06:48:07;;;;;;;4.40;3.37;;;;;;;11.51;67.69;95736.06;6135415;23;20207;-86
2023/03/21 06:50:33;;;;;;;3.63;3.23;;;;;;;11.50;67.96;95734.47;6133540;23;20176;-85
2023/03/21 06:53:00;;;;;;;4.93;3.40;;;;;;;11.51;67.94;95734.28;6134169;23;20195;-84
2023/03/21 06:55:27;;;;;;;5.00;3.70;;;;;;;11.50;68.20;95735.28;6133921;23;20206;-87
2023/03/21 06:57:55;;;;;;;4.67;3.53;;;;;;;11.50;68.09;95729.31;6133908;23;20236;-86
2023/03/21 07:00:22;;;;;;;5.57;3.50;;;;;;;11.58;67.23;95731.78;6133096;23;20179;-86
2023/03/21 07:02:50;;;;;;;4.83;3.60;;;;;;;11.53;67.52;95726.38;6134550;23;20183;-85
2023/03/21 07:05:17;;;;;;;4.87;3.80;;;;;;;11.57;67.34;95725.03;6133657;23;20706;-84
2023/03/21 07:07:44;;;;;;;3.97;3.57;;;;;;;11.58;67.27;95721.47;6134617;23;20202;-84
2023/03/21 07:10:11;;;;;;;3.60;3.30;;;;;;;11.56;67.56;95726.81;6133724;23;20648;-86
2023/03/21 07:12:38;;;;;;;4.83;3.57;;;;;;;11.64;66.65;95729.31;6133345;23;20175;-84
2023/03/21 07:15:07;;;;;;;6.70;4.13;;;;;;;11.66;66.96;95727.34;6133303;23;20186;-85
2023/03/21 07:17:33;;;;;;;5.43;3.87;;;;;;;11.72;66.50;95733.56;6133956;23;20247;-86
2023/03/21 07:20:03;;;;;;;5.57;4.33;;;;;;;11.71;66.54;95735.34;6134507;23;20181;-85
2023/03/21 07:22:29;;;;;;;4.70;3.73;;;;;;;11.77;66.18;95734.66;6133452;23;20195;-87
2023/03/21 07:24:56;;;;;;;4.53;4.13;;;;;;;11.84;66.02;95732.16;6135288;23;20214;-85
2023/03/21 07:30:35;;;;;;;3.07;2.67;;;;;;;12.49;70.21;95728.69;6110072;23;20170;-90
2023/03/21 07:33:40;;;;;;;3.30;3.00;;;;;;;12.64;65.73;95726.84;6120326;23;20166;-90
2023/03/21 07:36:10;;;;;;;4.23;3.80;;;;;;;12.79;64.70;95724.16;6097912;23;20274;-86
2023/03/21 07:38:36;;;;;;;4.87;4.13;;;;;;;12.74;63.80;95729.09;6129875;23;20594;-86
2023/03/21 07:41:03;;;;;;;8.70;3.90;;;;;;;12.65;63.78;95728.44;6128580;23;20206;-87
2023/03/21 07:43:29;;;;;;;4.63;3.80;;;;;;;12.45;63.92;95727.47;6130723;23;20190;-87
2023/03/21 07:45:57;;;;;;;5.63;3.80;;;;;;;12.35;63.82;95727.75;6130800;23;20199;-87
2023/03/21 07:48:24;;;;;;;5.57;4.10;;;;;;;12.29;64.61;95725.91;6130420;23;20175;-87
2023/03/21 07:50:50;;;;;;;6.63;4.27;;;;;;;12.24;64.66;95728.25;6129441;23;20523;-86
2023/03/21 07:53:18;;;;;;;4.57;3.53;;;;;;;12.28;63.95;95733.84;6128647;23;20179;-86
2023/03/21 07:55:45;;;;;;;6.93;4.00;;;;;;;12.29;64.07;95730.28;6129327;23;20182;-86
2023/03/21 07:58:11;;;;;;;5.87;4.30;;;;;;;12.31;64.37;95726.53;6128441;23;20180;-86
2023/03/21 08:00:37;;;;;;;5.53;3.67;;;;;;;12.33;64.04;95736.66;6129031;23;20182;-86
2023/03/21 08:03:04;;;;;;;4.60;4.07;;;;;;;12.29;64.08;95725.91;6129727;23;20222;-86
2023/03/21 08:05:34;;;;;;;4.20;3.80;;;;;;;12.33;63.71;95729.72;6128467;23;20180;-86
2023/03/21 08:08:01;;;;;;;4.67;3.67;;;;;;;12.37;63.34;95727.56;6128170;23;20263;-87
2023/03/21 08:10:29;;;;;;;4.60;4.07;;;;;;;12.42;62.74;95731.19;6127183;23;20239;-87
2023/03/21 08:12:55;;;;;;;5.97;3.97;;;;;;;12.46;62.41;95734.22;6127238;23;20222;-86
2023/03/21 08:15:22;;;;;;;4.43;4.03;;;;;;;12.48;61.96;95723.72;6127226;23;20175;-86
2023/03/21 08:17:49;;;;;;;5.83;4.20;;;;;;;12.51;61.00;95725.94;6127894;23;20212;-86
2023/03/21 08:20:20;;;;;;;5.10;4.13;;;;;;;12.52;61.60;95728.31;6129720;23;20205;-86
2023/03/21 08:22:47;;;;;;;5.10;3.90;;;;;;;12.58;62.02;95721.59;6128547;23;20223;-87
2023/03/21 08:25:16;;;;;;;6.40;4.27;;;;;;;12.64;61.79;95718.28;6129238;23;20215;-87
2023/03/21 08:27:45;;;;;;;4.80;4.03;;;;;;;12.70;61.75;95718.31;6129267;23;20195;-86
2023/03/21 08:30:15;;;;;;;5.60;4.27;;;;;;;12.75;62.01;95715.19;6129288;23;20179;-86
2023/03/21 08:32:41;;;;;;;6.63;4.70;;;;;;;12.77;61.33;95723.56;6129060;23;20175;-87
2023/03/21 08:35:11;;;;;;;7.80;4.63;;;;;;;12.80;61.33;95726.56;6129631;23;20716;-87
2023/03/21 08:37:37;;;;;;;8.03;4.50;;;;;;;12.74;61.03;95722.13;6128070;23;20204;-86
2023/03/21 08:40:07;;;;;;;4.80;4.30;;;;;;;12.70;60.94;95718.31;6129190;23;20539;-85
2023/03/21 08:42:34;;;;;;;6.40;4.30;;;;;;;12.70;60.99;95717.56;6127110;23;20219;-86
2023/03/21 08:45:03;;;;;;;8.20;5.07;;;;;;;12.75;60.33;95717.78;6128079;23;20203;-86
2023/03/21 08:47:30;;;;;;;7.30;4.83;;;;;;;12.72;60.55;95721.53;6128424;23;20219;-86
2023/03/21 08:49:58;;;;;;;6.03;4.93;;;;;;;12.78;60.05;95717.41;6129951;23;20255;-88
2023/03/21 08:52:25;;;;;;;4.80;4.40;;;;;;;12.86;60.07;95717.28;6129742;23;20175;-86
2023/03/21 08:54:52;;;;;;;6.70;4.27;;;;;;;12.94;59.75;95716.31;6128706;23;20179;-86
2023/03/21 08:57:19;;;;;;;5.50;4.70;;;;;;;12.99;59.43;95711.41;6129670;23;20207;-86
2023/03/21 08:59:45;;;;;;;5.50;4.50;;;;;;;13.05;59.47;95710.66;6127920;23;20179;-86
2023/03/21 09:02:14;;;;;;;6.33;4.30;;;;;;;13.09;58.46;95709.28;6128602;23;20199;-86
2023/03/21 09:04:42;;;;;;;5.30;4.37;;;;;;;13.15;58.93;95700.81;6129444;23;20183;-86
2023/03/21 09:07:10;;;;;;;3.77;3.40;;;;;;;13.10;57.54;95706.50;6130050;23;20242;-87
2023/03/21 09:09:36;;;;;;;4.83;3.80;;;;;;;13.07;57.37;95706.09;6128611;23;20183;-87
2023/03/21 09:12:03;;;;;;;3.77;3.47;;;;;;;13.14;57.59;95704.34;6126875;23;20175;-86
2023/03/21 09:14:29;;;;;;;4.20;3.80;;;;;;;13.24;57.17;95698.88;6127498;23;20183;-86
2023/03/21 09:16:56;;;;;;;4.68;4.18;;;;;;;13.34;57.92;95691.56;6126375;23;20254;-86
2023/03/21 09:19:24;;;;;;;4.53;4.10;;;;;;;13.28;56.31;95707.84;6126729;23;20227;-86
2023/03/21 09:21:52;;;;;;;4.30;3.90;;;;;;;13.10;57.51;95703.91;6125065;23;20196;-86
2023/03/21 09:24:18;;;;;;;4.63;3.90;;;;;;;13.05;57.35;95697.75;6126283;23;20191;-86
2023/03/21 09:26:45;;;;;;;3.67;3.30;;;;;;;13.06;57.64;95694.97;6125478;23;20226;-88
2023/03/21 09:29:12;;;;;;;4.07;3.67;;;;;;;13.27;57.76;95698.50;6126062;23;20218;-86
2023/03/21 09:31:38;;;;;;;4.83;3.83;;;;;;;13.40;57.85;95695.97;6126033;23;20177;-86
2023/03/21 09:34:05;;;;;;;4.27;3.57;;;;;;;13.51;56.28;95697.22;6125250;23;20207;-86
2023/03/21 09:36:34;;;;;;;5.10;3.80;;;;;;;13.59;56.08;95697.06;6127692;23;20530;-86
2023/03/21 09:39:02;;;;;;;4.73;3.57;;;;;;;13.48;55.94;95698.41;6125265;23;20186;-86
2023/03/21 09:41:45;;;;;;;5.60;3.57;;;;;;;13.37;55.58;95694.56;6125654;23;20520;-87
2023/03/21 09:44:26;;;;;;;4.77;3.70;;;;;;;13.59;56.59;95697.88;6126158;23;20480;-87
2023/03/21 09:47:02;;;;;;;5.40;3.50;;;;;;;13.68;56.31;95694.13;6127168;23;20223;-87
2023/03/21 09:49:33;;;;;;;3.92;3.63;;;;;;;13.80;55.66;95692.59;6129300;23;20167;-87
2023/03/21 09:52:05;;;;;;;4.60;3.63;;;;;;;13.80;54.77;95687.41;6127997;23;20251;-87
2023/03/21 09:54:35;;;;;;;3.78;3.28;;;;;;;13.85;54.28;95696.41;6127456;23;20252;-86
2023/03/21 09:57:11;;;;;;;4.20;3.50;;;;;;;13.89;54.35;95695.78;6126283;23;20234;-85
2023/03/21 09:59:40;;;;;;;3.63;3.33;;;;;;;13.96;53.69;95698.41;6128307;23;20569;-87
2023/03/21 10:02:34;;;;;;;3.53;3.08;;;;;;;14.06;54.06;95691.06;6128142;23;20195;-85
2023/03/21 10:05:05;;;;;;;2.87;2.63;;;;;;;14.19;54.51;95693.69;6128132;23;20159;-87
2023/03/21 10:07:38;;;;;;;3.20;2.90;;;;;;;14.27;53.94;95692.69;6126363;23;20231;-85
2023/03/21 10:10:06;;;;;;;3.65;3.33;;;;;;;14.36;53.24;95674.22;6126219;23;20171;-86
2023/03/21 10:12:32;;;;;;;3.25;2.80;;;;;;;14.51;53.35;95680.03;6127503;23;20262;-87
2023/03/21 10:15:04;;;;;;;4.13;2.95;;;;;;;14.69;53.18;95676.84;6128031;23;20191;-87
2023/03/21 10:17:33;;;;;;;3.35;3.03;;;;;;;14.84;52.90;95682.63;6128408;23;20251;-86
2023/03/21 10:20:12;;;;;;;3.53;3.22;;;;;;;14.85;51.34;95673.84;6127264;23;20180;-86
2023/03/21 10:22:40;;;;;;;5.32;2.97;;;;;;;14.84;51.74;95676.63;6125173;23;20199;-87
2023/03/21 10:25:10;;;;;;;8.88;3.30;;;;;;;14.86;51.63;95672.03;6129756;23;20187;-86
2023/03/21 10:27:37;;;;;;;3.38;3.08;;;;;;;14.94;51.38;95678.84;6130955;23;20200;-86
2023/03/21 10:30:06;;;;;;;4.28;3.42;;;;;;;14.92;50.55;95665.28;6130510;23;20186;-86
2023/03/21 10:32:34;;;;;;;3.55;3.25;;;;;;;14.91;50.51;95667.06;6128477;23;20427;-86
2023/03/21 10:35:03;;;;;;;4.50;3.10;;;;;;;14.77;51.05;95657.72;6127999;23;20867;-86
2023/03/21 10:37:31;;;;;;;3.65;3.35;;;;;;;14.85;51.76;95655.69;6129199;23;20203;-87
2023/03/21 10:39:59;;;;;;;4.82;2.90;;;;;;;14.94;50.78;95658.88;6131601;23;20186;-86
2023/03/21 10:42:28;;;;;;;4.72;2.97;;;;;;;15.11;50.65;95654.06;6131725;23;20738;-86
2023/03/21 10:44:56;;;;;;;3.70;2.90;;;;;;;15.34;49.56;95648.44;6131933;23;20181;-87
2023/03/21 10:47:26;;;;;;;3.33;2.63;;;;;;;15.56;50.09;95643.81;6131966;23;20199;-88
2023/03/21 10:49:53;;;;;;;3.50;2.40;;;;;;;15.51;49.39;95645.19;6131332;23;20179;-87
2023/03/21 10:52:22;;;;;;;3.72;2.95;;;;;;;15.69;48.82;95646.34;6132712;23;20246;-87
2023/03/21 10:54:50;;;;;;;2.88;2.67;;;;;;;15.75;48.85;95643.72;6132969;23;20176;-87
2023/03/21 10:57:21;;;;;;;3.10;2.50;;;;;;;15.83;49.08;95638.28;6131493;23;20246;-87
2023/03/21 10:59:52;;;;;;;3.10;2.53;;;;;;;15.68;49.04;95642.16;6133330;23;20179;-88
2023/03/21 11:02:24;;;;;;;2.28;2.08;;;;;;;15.85;49.55;95631.06;6130800;23;20739;-87
2023/03/21 11:04:52;;;;;;;2.58;2.33;;;;;;;15.93;48.69;95637.03;6131071;23;20219;-86
2023/03/21 11:07:19;;;;;;;2.75;2.35;;;;;;;16.16;48.61;95634.72;6132751;23;20203;-87
2023/03/21 11:09:47;;;;;;;2.92;2.72;;;;;;;16.28;48.07;95633.03;6132611;23;20186;-86
2023/03/21 11:12:16;;;;;;;2.55;2.35;;;;;;;16.30;47.89;95632.81;6133300;23;20185;-86
2023/03/21 11:14:45;;;;;;;2.60;2.40;;;;;;;16.35;47.22;95631.19;6135251;23;20210;-86
2023/03/21 11:17:23;;;;;;;2.65;2.45;;;;;;;16.34;47.25;95627.00;6132277;23;20210;-87
2023/03/21 11:19:51;;;;;;;2.90;2.53;;;;;;;16.29;47.09;95618.22;6131031;23;20440;-86
2023/03/21 11:22:20;;;;;;;2.53;2.33;;;;;;;16.34;48.15;95618.41;6131630;23;20202;-87
2023/03/21 11:24:50;;;;;;;3.25;2.45;;;;;;;16.42;47.16;95623.31;6131277;23;20184;-86
2023/03/21 11:27:17;;;;;;;2.85;2.65;;;;;;;16.42;47.19;95620.72;6132114;23;20202;-87
2023/03/21 11:29:48;;;;;;;2.70;2.45;;;;;;;16.62;46.76;95607.56;6132143;23;20179;-87
2023/03/21 11:32:21;;;;;;;2.40;2.20;;;;;;;16.63;46.11;95594.38;6133440;23;20164;-86
2023/03/21 11:34:52;;;;;;;2.90;2.70;;;;;;;16.93;46.61;95604.94;6132775;23;20164;-86
2023/03/21 11:37:21;;;;;;;3.22;2.47;;;;;;;17.10;46.10;95597.34;6132452;23;20287;-87
2023/03/21 11:39:47;;;;;;;3.28;2.97;;;;;;;16.86;45.54;95589.38;6134894;23;20179;-87
2023/03/21 11:42:27;;;;;;;2.65;2.38;;;;;;;16.91;45.54;95586.94;6133975;23;20195;-87
2023/03/21 11:45:01;;;;;;;2.50;2.30;;;;;;;16.99;45.85;95583.22;6133057;23;20263;-88
2023/03/21 11:47:28;;;;;;;2.50;2.30;;;;;;;17.04;46.00;95582.59;6134701;23;20202;-88
2023/03/21 11:49:56;;;;;;;2.65;2.22;;;;;;;17.20;45.48;95569.00;6134284;23;20183;-86